SBCY/CGB METAR and TAF weather

Enter ICAO airport designator
Station Type Date Time Source
SBCY METAR 2019/06/17 15:00 UTC NOAA

SBCY 171500Z 15004KT CAVOK 33/18 Q1019


Station Type Date Time Source
SBCY Decoded METAR 2019/06/17 15:00 UTC NOAA

Cuiaba Aeroporto , Brazil (SBCY) 15-39S 056-06W 182M
Jun 17, 2019 - 11:00 AM EDT / 2019.06.17 1500 UTC
Wind: from the SSE (150 degrees) at 5 MPH (4 KT):0
Visibility: greater than 7 mile(s):0
Temperature: 91 F (33 C)
Dew Point: 64 F (18 C)
Relative Humidity: 41%
Pressure (altimeter): 30.09 in. Hg (1019 hPa)
ob: SBCY 171500Z 15004KT CAVOK 33/18 Q1019
cycle: 15

Station Type Date Time Source
SBCY TAF 2019/06/17 18:40 UTC NOAA

TAF SBCY 171500Z 1718/1818 07005KT 9999 FEW020 TX35/1718Z TN22/1808Z
BECMG 1720/1722 16005KT CAVOK
BECMG 1806/1808 33005KT
RMK PHD

Example: see airport list